Time;durP1;ratioP1;P1;durP2;ratioP2;P2;SDS_P1;SDS_P2;PMS_P1;PMS_P2;Temp;Humidity;BMP_temperature;BMP_pressure;BME280_temperature;BME280_humidity;BME280_pressure;Samples;Min_cycle;Max_cycle;Signal;HPM_P1;HPM_P2
2023/04/11 00:01:13;;;;;;;5.75;1.40;;;15.00;99.90;;;;;;5000171;28;20046;-75
2023/04/11 00:03:40;;;;;;;3.47;1.10;;;15.00;99.90;;;;;;4997469;28;20514;-75
2023/04/11 00:06:07;;;;;;;2.97;1.30;;;15.00;99.90;;;;;;5021162;28;20612;-75
2023/04/11 00:08:34;;;;;;;1.58;1.10;;;15.00;99.90;;;;;;5027900;28;20073;-75
2023/04/11 00:11:01;;;;;;;3.15;0.77;;;15.00;99.90;;;;;;5037067;28;20064;-75
2023/04/11 00:13:27;;;;;;;2.03;0.98;;;14.90;99.90;;;;;;5031141;28;20056;-75
2023/04/11 00:15:54;;;;;;;2.55;1.13;;;14.90;99.90;;;;;;5028510;28;20528;-75
2023/04/11 00:18:24;;;;;;;1.80;1.10;;;14.90;99.90;;;;;;5003897;28;20065;-75
2023/04/11 00:20:51;;;;;;;2.47;1.23;;;14.90;99.90;;;;;;5004564;28;20071;-76
2023/04/11 00:23:17;;;;;;;3.50;0.90;;;14.90;99.90;;;;;;5009687;28;20798;-75
2023/04/11 00:25:44;;;;;;;1.63;0.88;;;14.80;99.90;;;;;;5001536;28;20451;-75
2023/04/11 00:28:11;;;;;;;3.47;1.40;;;14.80;99.90;;;;;;5003124;28;20129;-75
2023/04/11 00:30:38;;;;;;;3.40;1.10;;;14.80;99.90;;;;;;5000372;28;20046;-75
2023/04/11 00:33:04;;;;;;;1.98;1.15;;;14.70;99.90;;;;;;4998247;28;20668;-76
2023/04/11 00:35:33;;;;;;;1.17;1.08;;;14.70;99.90;;;;;;5007717;28;20042;-76
2023/04/11 00:38:01;;;;;;;3.63;1.30;;;14.70;99.90;;;;;;5008820;28;20129;-76
2023/04/11 00:40:28;;;;;;;1.67;1.10;;;14.60;99.90;;;;;;5003913;28;20045;-75
2023/04/11 00:42:55;;;;;;;6.03;1.42;;;14.60;99.90;;;;;;5002952;28;20502;-75
2023/04/11 00:45:22;;;;;;;2.38;1.17;;;14.60;99.90;;;;;;5004413;28;20086;-76
2023/04/11 00:47:50;;;;;;;3.13;1.83;;;14.60;99.90;;;;;;4999323;28;20498;-75
2023/04/11 00:50:17;;;;;;;3.38;1.30;;;14.60;99.90;;;;;;4998438;28;20132;-76
2023/04/11 00:52:46;;;;;;;2.60;1.40;;;14.60;99.90;;;;;;5003017;28;20074;-75
2023/04/11 00:55:13;;;;;;;3.53;1.33;;;14.60;99.90;;;;;;4996440;28;20133;-75
2023/04/11 00:57:40;;;;;;;5.38;1.42;;;14.60;99.90;;;;;;5007783;28;20121;-75
2023/04/11 01:00:10;;;;;;;2.60;1.02;;;14.60;99.90;;;;;;5003204;28;20037;-75
2023/04/11 01:02:41;;;;;;;2.20;1.30;;;14.60;99.90;;;;;;5007629;28;20042;-74
2023/04/11 01:05:10;;;;;;;1.52;1.20;;;14.60;99.90;;;;;;5001445;28;20046;-75
2023/04/11 01:07:38;;;;;;;2.75;1.20;;;14.50;99.90;;;;;;5005003;28;20050;-75
2023/04/11 01:10:06;;;;;;;4.93;1.10;;;14.50;99.90;;;;;;5000618;28;20136;-75
2023/04/11 01:12:33;;;;;;;2.78;1.20;;;14.50;99.90;;;;;;4999456;28;20042;-75
2023/04/11 01:15:00;;;;;;;3.50;1.13;;;14.50;99.90;;;;;;5005067;28;20496;-76
2023/04/11 01:17:27;;;;;;;3.58;1.20;;;14.50;99.90;;;;;;4996550;28;20093;-75
2023/04/11 01:19:54;;;;;;;4.38;1.30;;;14.40;99.90;;;;;;5000576;28;20042;-75
2023/04/11 01:22:21;;;;;;;2.55;1.30;;;14.50;99.90;;;;;;5008457;28;20133;-76
2023/04/11 01:24:49;;;;;;;2.88;1.33;;;14.40;99.90;;;;;;5003153;28;20050;-75
2023/04/11 01:27:16;;;;;;;2.58;1.20;;;14.40;99.90;;;;;;5004074;28;20046;-75
2023/04/11 01:29:43;;;;;;;2.75;1.27;;;14.40;99.90;;;;;;5003323;28;20640;-75
2023/04/11 01:32:10;;;;;;;2.25;1.10;;;14.40;99.90;;;;;;5004919;28;20046;-76
2023/04/11 01:34:39;;;;;;;3.97;1.75;;;14.40;99.90;;;;;;5003652;28;20129;-75
2023/04/11 01:37:05;;;;;;;5.22;1.42;;;14.30;99.90;;;;;;5001002;28;20116;-75
2023/04/11 01:39:32;;;;;;;5.32;1.38;;;14.20;99.90;;;;;;4998489;28;20473;-76
2023/04/11 01:42:01;;;;;;;2.70;1.30;;;14.10;99.90;;;;;;4997352;28;20526;-74
2023/04/11 01:44:32;;;;;;;3.92;1.85;;;14.00;99.90;;;;;;5031003;23;20053;-82
2023/04/11 01:47:19;;;;;;;3.47;1.70;;;13.90;99.90;;;;;;5027704;28;20468;-80
2023/04/11 01:50:06;;;;;;;;;;;;;;;;;;;;;
2023/04/11 01:52:51;;;;;;;2.88;1.42;;;13.70;99.90;;;;;;5024003;28;20041;-79
2023/04/11 01:55:24;;;;;;;1.98;1.50;;;13.70;99.90;;;;;;5020487;28;20076;-80
2023/04/11 01:58:37;;;;;;;2.58;1.42;;;13.60;99.90;;;;;;5025876;28;20487;-77
2023/04/11 02:01:33;;;;;;;2.50;1.23;;;13.50;99.90;;;;;;5022997;28;20053;-80
2023/04/11 02:07:28;;;;;;;4.13;2.03;;;13.40;99.90;;;;;;5021461;28;20060;-78
2023/04/11 02:10:14;;;;;;;2.35;1.50;;;13.40;99.90;;;;;;5019964;28;20056;-80
2023/04/11 02:13:06;;;;;;;2.97;1.52;;;13.40;99.90;;;;;;5021262;28;20046;-79
2023/04/11 02:15:47;;;;;;;3.45;1.33;;;13.40;99.90;;;;;;5023345;28;20212;-81
2023/04/11 02:18:27;;;;;;;3.22;1.42;;;13.40;99.90;;;;;;5018185;28;20108;-79
2023/04/11 02:21:00;;;;;;;5.93;2.22;;;13.30;99.90;;;;;;5023429;28;20057;-80
2023/04/11 02:23:35;;;;;;;2.92;1.42;;;13.30;99.90;;;;;;5025852;28;20073;-79
2023/04/11 02:26:10;;;;;;;1.95;1.20;;;13.30;99.90;;;;;;5030006;28;20192;-79
2023/04/11 02:28:51;;;;;;;2.85;1.30;;;13.20;99.90;;;;;;5023722;28;20132;-78
2023/04/11 02:31:30;;;;;;;1.90;1.20;;;13.20;99.90;;;;;;5027345;28;20072;-80
2023/04/11 02:34:05;;;;;;;4.75;1.25;;;13.10;99.90;;;;;;5021753;28;20056;-77
2023/04/11 02:36:36;;;;;;;2.05;1.20;;;13.10;99.90;;;;;;5030948;28;20504;-79
2023/04/11 02:39:06;;;;;;;5.40;1.27;;;13.10;99.90;;;;;;5030582;28;20057;-79
2023/04/11 02:41:37;;;;;;;3.33;1.13;;;13.00;99.90;;;;;;5026427;28;20521;-79
2023/04/11 02:44:11;;;;;;;2.03;1.20;;;13.00;99.90;;;;;;5029031;28;20046;-79
2023/04/11 02:46:37;;;;;;;1.98;1.40;;;12.90;99.90;;;;;;5030334;28;20107;-78
2023/04/11 02:49:06;;;;;;;1.98;1.40;;;13.00;99.90;;;;;;5026208;28;20057;-80
2023/04/11 02:51:37;;;;;;;;;;;12.90;99.90;;;;;;5028846;28;20041;-80
2023/04/11 02:54:07;;;;;;;2.42;1.13;;;12.90;99.90;;;;;;5029632;28;19983;-79
2023/04/11 02:56:38;;;;;;;3.38;1.30;;;12.90;99.90;;;;;;5023707;28;20080;-79
2023/04/11 02:59:10;;;;;;;2.30;1.30;;;12.90;99.90;;;;;;5028186;28;20089;-79
2023/04/11 03:01:40;;;;;;;2.22;1.10;;;12.90;99.90;;;;;;5030274;28;20522;-79
2023/04/11 03:04:07;;;;;;;2.70;1.23;;;12.90;99.90;;;;;;5028015;28;20061;-79
2023/04/11 03:06:34;;;;;;;1.33;0.93;;;12.80;99.90;;;;;;5028908;28;20115;-82
2023/04/11 03:09:01;;;;;;;4.25;1.20;;;12.80;99.90;;;;;;5028524;28;20092;-81
2023/04/11 03:11:28;;;;;;;1.70;0.93;;;12.80;99.90;;;;;;5031652;28;20095;-80
2023/04/11 03:13:55;;;;;;;3.50;1.02;;;12.70;99.90;;;;;;5027414;28;20050;-80
2023/04/11 03:16:22;;;;;;;1.45;1.20;;;12.70;99.90;;;;;;5029212;28;20486;-80
2023/04/11 03:18:48;;;;;;;3.47;1.30;;;12.70;99.90;;;;;;5024886;28;20053;-80
2023/04/11 03:21:15;;;;;;;1.77;1.00;;;12.60;99.90;;;;;;5026339;28;20042;-79
2023/04/11 03:23:42;;;;;;;2.35;1.23;;;12.60;99.90;;;;;;5028668;28;20129;-81
2023/04/11 03:26:09;;;;;;;3.10;1.20;;;12.60;99.90;;;;;;5027456;28;20100;-80
2023/04/11 03:28:36;;;;;;;1.70;1.05;;;12.60;99.90;;;;;;5026853;28;20046;-81
2023/04/11 03:31:03;;;;;;;2.90;1.20;;;12.60;99.90;;;;;;5030037;28;20709;-82
2023/04/11 03:33:30;;;;;;;1.98;1.00;;;12.60;99.90;;;;;;5035083;28;20042;-81
2023/04/11 03:35:57;;;;;;;4.43;1.40;;;12.50;99.90;;;;;;5034527;28;20583;-81
2023/04/11 03:38:24;;;;;;;4.13;1.10;;;12.50;99.90;;;;;;5031045;28;20037;-81
2023/04/11 03:40:51;;;;;;;2.92;0.85;;;12.50;99.90;;;;;;5027701;28;20088;-79
2023/04/11 03:43:18;;;;;;;2.08;0.93;;;12.50;99.90;;;;;;5025874;28;20136;-80
2023/04/11 03:45:45;;;;;;;4.35;1.25;;;12.50;99.90;;;;;;5025312;28;20048;-81
2023/04/11 03:48:11;;;;;;;6.47;1.25;;;12.50;99.90;;;;;;5023424;28;20096;-81
2023/04/11 03:50:38;;;;;;;7.15;1.27;;;12.40;99.90;;;;;;5033036;28;20077;-79
2023/04/11 03:53:06;;;;;;;2.88;1.15;;;12.50;99.90;;;;;;5028539;28;20052;-80
2023/04/11 03:55:32;;;;;;;2.35;1.15;;;12.40;99.90;;;;;;5020893;28;20046;-81
2023/04/11 03:57:59;;;;;;;4.40;1.30;;;12.40;99.90;;;;;;5030136;28;20465;-82
2023/04/11 04:00:27;;;;;;;3.83;1.00;;;12.40;99.90;;;;;;5032997;28;20088;-81
2023/04/11 04:02:53;;;;;;;1.63;1.15;;;12.50;99.90;;;;;;5028257;28;20045;-82
2023/04/11 04:05:21;;;;;;;3.13;1.10;;;12.50;99.90;;;;;;5035382;28;20049;-81
2023/04/11 04:07:47;;;;;;;4.05;1.60;;;12.40;99.90;;;;;;5028584;28;20092;-80
2023/04/11 04:10:14;;;;;;;3.42;1.17;;;12.40;99.90;;;;;;5033228;28;20056;-81
2023/04/11 04:12:42;;;;;;;2.20;1.45;;;12.40;99.90;;;;;;5023057;28;20053;-80
2023/04/11 04:15:10;;;;;;;2.17;0.95;;;12.40;99.90;;;;;;5026493;28;20076;-79
2023/04/11 04:17:37;;;;;;;6.13;1.55;;;12.50;99.90;;;;;;5032618;28;20050;-80
2023/04/11 04:20:05;;;;;;;1.60;0.90;;;12.50;99.90;;;;;;5020286;28;20494;-81
2023/04/11 04:22:32;;;;;;;2.55;1.02;;;12.50;99.90;;;;;;5032130;28;20051;-80
2023/04/11 04:25:00;;;;;;;2.83;0.90;;;12.50;99.90;;;;;;5029320;28;20111;-81
2023/04/11 04:27:27;;;;;;;3.33;1.20;;;12.50;99.90;;;;;;5035717;28;20088;-79
2023/04/11 04:29:55;;;;;;;3.65;1.17;;;12.50;99.90;;;;;;5025697;28;20077;-81
2023/04/11 04:32:29;;;;;;;1.52;1.10;;;12.50;99.90;;;;;;5027934;28;20509;-81
2023/04/11 04:34:57;;;;;;;2.15;1.00;;;12.50;99.90;;;;;;5027222;28;20137;-81
2023/04/11 04:37:25;;;;;;;2.05;1.02;;;12.50;99.90;;;;;;5029958;28;20196;-81
2023/04/11 04:39:54;;;;;;;3.08;0.95;;;12.50;99.90;;;;;;5026651;28;20045;-79
2023/04/11 04:42:22;;;;;;;3.17;0.95;;;12.50;99.90;;;;;;5029642;28;20050;-80
2023/04/11 04:44:49;;;;;;;1.88;0.85;;;12.50;99.90;;;;;;5033900;28;20145;-79
2023/04/11 04:47:16;;;;;;;3.17;1.00;;;12.50;99.90;;;;;;5030209;28;20069;-80
2023/04/11 04:49:44;;;;;;;0.93;0.68;;;12.50;99.90;;;;;;5025326;28;20069;-81
2023/04/11 04:52:14;;;;;;;2.50;0.80;;;12.50;99.90;;;;;;5026636;28;20055;-82
2023/04/11 04:54:42;;;;;;;2.97;0.88;;;12.50;99.90;;;;;;5026294;28;20049;-82
2023/04/11 04:57:08;;;;;;;2.80;0.77;;;12.50;99.90;;;;;;5024392;28;20065;-80
2023/04/11 04:59:35;;;;;;;3.08;1.10;;;12.50;99.90;;;;;;5032449;28;20042;-81
2023/04/11 05:02:02;;;;;;;3.15;1.40;;;12.50;99.90;;;;;;5022388;28;20042;-80
2023/04/11 05:04:30;;;;;;;1.23;0.75;;;12.50;99.90;;;;;;5021143;28;20045;-81
2023/04/11 05:06:57;;;;;;;1.40;1.13;;;12.50;99.90;;;;;;5026309;28;20115;-78
2023/04/11 05:09:24;;;;;;;2.17;0.95;;;12.50;99.90;;;;;;5027430;28;20103;-81
2023/04/11 05:11:51;;;;;;;2.63;0.95;;;12.50;99.90;;;;;;5032651;28;20076;-81
2023/04/11 05:14:18;;;;;;;2.55;1.17;;;12.50;99.90;;;;;;5026670;28;20046;-81
2023/04/11 05:16:45;;;;;;;2.05;0.90;;;12.40;99.90;;;;;;5025057;28;20539;-81
2023/04/11 05:19:11;;;;;;;0.50;0.30;;;12.40;99.90;;;;;;5027180;28;20052;-79
2023/04/11 05:21:38;;;;;;;1.60;0.30;;;12.30;99.90;;;;;;5029746;28;20038;-81
2023/04/11 05:24:05;;;;;;;1.45;0.25;;;12.10;99.90;;;;;;5025819;28;20080;-80
2023/04/11 05:26:32;;;;;;;0.38;0.30;;;12.10;99.90;;;;;;5020492;28;20048;-80
2023/04/11 05:28:59;;;;;;;1.13;0.60;;;12.00;99.90;;;;;;5019202;28;20413;-81
2023/04/11 05:31:27;;;;;;;0.80;0.73;;;12.00;99.90;;;;;;5029165;28;20401;-81
2023/04/11 05:33:55;;;;;;;1.35;0.60;;;11.90;99.90;;;;;;5018665;28;20041;-80
2023/04/11 05:36:22;;;;;;;2.20;0.20;;;11.80;99.90;;;;;;5028292;28;20049;-81
2023/04/11 05:38:49;;;;;;;0.60;0.52;;;11.60;99.90;;;;;;5028505;28;20069;-81
2023/04/11 05:41:16;;;;;;;0.60;0.30;;;11.50;99.90;;;;;;5028650;28;20100;-81
2023/04/11 05:43:42;;;;;;;0.45;0.30;;;11.50;99.90;;;;;;5020466;28;20046;-80
2023/04/11 05:46:09;;;;;;;0.20;0.20;;;11.50;99.90;;;;;;5022233;28;20056;-81
2023/04/11 05:48:37;;;;;;;0.20;0.20;;;11.50;99.90;;;;;;5023651;28;20050;-81
2023/04/11 05:51:04;;;;;;;0.65;0.32;;;11.50;99.90;;;;;;5024495;28;20065;-81
2023/04/11 05:53:31;;;;;;;0.68;0.30;;;11.50;99.90;;;;;;5022953;28;20105;-80
2023/04/11 05:55:58;;;;;;;1.73;0.20;;;11.40;99.90;;;;;;5025145;28;20132;-81
2023/04/11 05:58:24;;;;;;;1.75;0.28;;;11.40;99.90;;;;;;5029504;28;20394;-79
2023/04/11 06:00:51;;;;;;;0.75;0.30;;;11.40;99.90;;;;;;5024873;28;20121;-80
2023/04/11 06:03:18;;;;;;;0.75;0.30;;;11.30;99.90;;;;;;5029198;28;20053;-81
2023/04/11 06:05:45;;;;;;;0.40;0.32;;;11.30;99.90;;;;;;5020949;28;20088;-78
2023/04/11 06:08:12;;;;;;;0.47;0.30;;;11.30;99.90;;;;;;5023546;28;20434;-80
2023/04/11 06:10:38;;;;;;;1.60;0.28;;;11.30;99.90;;;;;;5023775;28;20045;-80
2023/04/11 06:13:05;;;;;;;2.03;0.25;;;11.20;99.90;;;;;;5019881;28;20045;-79
2023/04/11 06:15:32;;;;;;;2.30;0.47;;;11.10;99.90;;;;;;5018236;28;20077;-79
2023/04/11 06:17:58;;;;;;;1.35;0.30;;;11.10;99.90;;;;;;5023820;28;20045;-82
2023/04/11 06:20:25;;;;;;;3.15;0.85;;;11.20;99.90;;;;;;5023402;28;20046;-79
2023/04/11 06:22:52;;;;;;;1.05;0.50;;;11.20;99.90;;;;;;5027366;28;20053;-79
2023/04/11 06:25:20;;;;;;;0.35;0.30;;;11.20;99.90;;;;;;5026892;28;20072;-81
2023/04/11 06:27:47;;;;;;;0.70;0.35;;;11.20;99.90;;;;;;5031210;28;20041;-81
2023/04/11 06:30:14;;;;;;;0.75;0.40;;;11.10;99.90;;;;;;5024083;28;20073;-79
2023/04/11 06:32:41;;;;;;;0.63;0.30;;;11.20;99.90;;;;;;5031681;28;20048;-79
2023/04/11 06:35:08;;;;;;;0.40;0.40;;;11.30;99.90;;;;;;5030754;28;20045;-80
2023/04/11 06:37:35;;;;;;;2.22;0.43;;;11.30;99.90;;;;;;5021538;28;20045;-79
2023/04/11 06:40:04;;;;;;;1.70;0.50;;;11.30;99.90;;;;;;5023481;28;20085;-81
2023/04/11 06:42:31;;;;;;;1.15;0.40;;;11.40;99.90;;;;;;5021764;28;20088;-82
2023/04/11 06:44:57;;;;;;;2.38;1.63;;;11.40;99.90;;;;;;5017604;28;20578;-79
2023/04/11 06:47:24;;;;;;;3.40;2.70;;;11.40;99.90;;;;;;5027033;28;20063;-80
2023/04/11 06:49:51;;;;;;;1.77;1.50;;;11.50;99.90;;;;;;5025730;28;20064;-78
2023/04/11 06:52:30;;;;;;;1.25;0.77;;;11.50;99.90;;;;;;5024676;28;20441;-79
2023/04/11 06:54:57;;;;;;;1.02;0.50;;;11.60;99.90;;;;;;5018432;28;20561;-80
2023/04/11 06:57:24;;;;;;;0.77;0.50;;;11.60;99.90;;;;;;5025277;28;20046;-79
2023/04/11 06:59:50;;;;;;;1.77;0.40;;;11.60;99.90;;;;;;5023761;28;20571;-81
2023/04/11 07:02:17;;;;;;;2.30;0.45;;;11.70;99.90;;;;;;5026440;28;20046;-79
2023/04/11 07:04:44;;;;;;;1.58;0.40;;;11.70;99.90;;;;;;5028946;28;20461;-80
2023/04/11 07:07:11;;;;;;;0.60;0.50;;;11.70;99.90;;;;;;5023518;28;20049;-80
2023/04/11 07:09:38;;;;;;;3.17;0.60;;;11.70;99.90;;;;;;5025423;28;20136;-78
2023/04/11 07:12:05;;;;;;;2.33;0.80;;;11.80;99.90;;;;;;5026132;28;20088;-81
2023/04/11 07:14:31;;;;;;;0.98;0.70;;;11.80;99.90;;;;;;5029923;28;20096;-79
2023/04/11 07:16:58;;;;;;;1.02;0.50;;;11.70;99.90;;;;;;5029393;28;20120;-80
2023/04/11 07:19:25;;;;;;;1.08;0.52;;;11.80;99.90;;;;;;5025919;28;20081;-81
2023/04/11 07:21:52;;;;;;;4.43;0.98;;;11.80;99.90;;;;;;5026303;28;20458;-79
2023/04/11 07:24:19;;;;;;;1.17;0.75;;;11.90;99.90;;;;;;5023942;28;20422;-80
2023/04/11 07:26:49;;;;;;;1.33;0.70;;;11.90;99.90;;;;;;5028986;28;20050;-80
2023/04/11 07:29:16;;;;;;;2.30;1.00;;;11.90;99.90;;;;;;5024894;28;20050;-81
2023/04/11 07:31:43;;;;;;;2.17;0.90;;;11.90;99.90;;;;;;5021925;28;20132;-80
2023/04/11 07:34:10;;;;;;;0.77;0.60;;;11.90;99.90;;;;;;5022616;28;20049;-80
2023/04/11 07:36:37;;;;;;;1.50;0.63;;;12.00;99.90;;;;;;5024747;28;20648;-80
2023/04/11 07:39:07;;;;;;;1.23;0.73;;;11.90;99.90;;;;;;5026252;28;20070;-79
2023/04/11 07:41:38;;;;;;;3.30;1.08;;;11.90;99.90;;;;;;5025642;28;20063;-79
2023/04/11 07:44:08;;;;;;;2.65;0.77;;;12.00;99.90;;;;;;5025739;28;20041;-79
2023/04/11 07:46:35;;;;;;;;;;;12.00;99.90;;;;;;5022861;28;20548;-81
2023/04/11 07:49:01;;;;;;;6.13;1.42;;;12.10;99.90;;;;;;5024564;28;19968;-79
2023/04/11 07:51:30;;;;;;;4.20;1.65;;;12.10;99.90;;;;;;5033130;23;20086;-77
2023/04/11 07:53:57;;;;;;;5.10;1.67;;;12.30;99.90;;;;;;5012401;28;20050;-78
2023/04/11 07:56:24;;;;;;;8.98;2.35;;;12.30;99.90;;;;;;5005879;28;20402;-77
2023/04/11 07:58:50;;;;;;;4.38;2.15;;;12.40;99.90;;;;;;4999302;28;20086;-77
2023/04/11 08:01:21;;;;;;;3.65;1.25;;;12.50;99.90;;;;;;5001794;28;20133;-77
2023/04/11 08:03:48;;;;;;;5.30;1.38;;;12.60;99.90;;;;;;5009324;28;20080;-77
2023/04/11 08:06:15;;;;;;;5.30;1.60;;;12.70;99.90;;;;;;5009427;28;20054;-77
2023/04/11 08:08:43;;;;;;;12.38;4.15;;;12.70;99.90;;;;;;5002261;28;20050;-77
2023/04/11 08:11:09;;;;;;;2.47;0.98;;;12.60;99.90;;;;;;5003520;28;20133;-78
2023/04/11 08:13:36;;;;;;;2.80;0.88;;;12.70;99.90;;;;;;5000317;28;20100;-78
2023/04/11 08:16:09;;;;;;;4.70;0.88;;;12.70;99.90;;;;;;5004350;28;20129;-78
2023/04/11 08:18:36;;;;;;;3.58;0.88;;;12.70;99.90;;;;;;5005370;28;20042;-78
2023/04/11 08:21:03;;;;;;;1.92;0.70;;;12.70;99.90;;;;;;5001160;28;20052;-77
2023/04/11 08:23:29;;;;;;;2.10;0.90;;;12.70;99.90;;;;;;5009176;28;20046;-75
2023/04/11 08:25:56;;;;;;;2.83;0.85;;;12.70;99.90;;;;;;5004982;28;20064;-78
2023/04/11 08:28:23;;;;;;;2.92;1.50;;;12.80;99.90;;;;;;5007861;28;20049;-77
2023/04/11 08:30:57;;;;;;;2.15;0.88;;;12.70;99.90;;;;;;5005548;28;20137;-78
2023/04/11 08:33:26;;;;;;;5.40;1.10;;;12.70;99.90;;;;;;5004256;28;20073;-82
2023/04/11 08:35:53;;;;;;;7.07;1.42;;;12.60;99.90;;;;;;5021205;28;20046;-76
2023/04/11 08:38:20;;;;;;;5.90;1.50;;;12.70;99.90;;;;;;5002005;28;20048;-77
2023/04/11 08:40:47;;;;;;;2.55;1.25;;;12.70;99.90;;;;;;5006409;28;20048;-77
2023/04/11 08:43:13;;;;;;;1.90;1.10;;;12.60;99.90;;;;;;5005678;28;20506;-77
2023/04/11 08:45:41;;;;;;;4.82;1.30;;;12.70;99.90;;;;;;4996623;28;20080;-77
2023/04/11 08:48:10;;;;;;;4.55;1.10;;;12.70;99.90;;;;;;5007033;28;20042;-77
2023/04/11 08:50:41;;;;;;;3.33;1.00;;;12.60;99.90;;;;;;5000120;28;20495;-77
2023/04/11 08:53:08;;;;;;;3.10;1.00;;;12.70;99.90;;;;;;5010358;28;20410;-77
2023/04/11 08:55:43;;;;;;;3.63;1.00;;;12.70;99.90;;;;;;5009871;28;20038;-78
2023/04/11 08:58:10;;;;;;;5.70;1.17;;;12.70;99.90;;;;;;5007646;28;20144;-77
2023/04/11 09:00:37;;;;;;;4.57;1.27;;;12.70;99.90;;;;;;5004168;28;20073;-77
2023/04/11 09:03:08;;;;;;;2.30;1.10;;;12.80;99.90;;;;;;5006092;28;20042;-77
2023/04/11 09:05:39;;;;;;;3.80;1.20;;;12.90;99.90;;;;;;5004809;28;20046;-78
2023/04/11 09:08:15;;;;;;;8.05;1.30;;;13.00;99.90;;;;;;5005876;28;20108;-78
2023/04/11 09:10:44;;;;;;;3.60;1.25;;;13.10;99.90;;;;;;5005525;28;20061;-78
2023/04/11 09:13:23;;;;;;;2.50;1.00;;;13.30;99.90;;;;;;5002917;28;20045;-77
2023/04/11 09:16:11;;;;;;;1.48;0.90;;;13.30;99.90;;;;;;5001366;28;20042;-78
2023/04/11 09:18:43;;;;;;;5.57;1.33;;;13.40;99.90;;;;;;5006685;28;20125;-77
2023/04/11 09:21:13;;;;;;;4.05;1.17;;;13.50;99.90;;;;;;5003380;28;20046;-77
2023/04/11 09:23:40;;;;;;;6.70;1.38;;;13.40;99.90;;;;;;5003481;28;20041;-78
2023/04/11 09:26:08;;;;;;;4.32;1.05;;;13.40;99.90;;;;;;5002259;28;20136;-78
2023/04/11 09:28:52;;;;;;;5.75;1.13;;;13.30;99.90;;;;;;5005180;28;20128;-78
2023/04/11 09:31:20;;;;;;;5.38;1.20;;;13.40;99.90;;;;;;5004638;28;20059;-78
2023/04/11 09:33:57;;;;;;;5.15;1.10;;;13.40;99.90;;;;;;5003686;28;20118;-78
2023/04/11 09:36:28;;;;;;;5.13;0.98;;;13.40;99.90;;;;;;5001183;28;20137;-78
2023/04/11 09:38:55;;;;;;;5.22;1.23;;;13.50;99.90;;;;;;5003342;28;20116;-77
2023/04/11 09:41:30;;;;;;;5.50;1.48;;;13.60;99.90;;;;;;5007419;28;20049;-78
2023/04/11 09:43:58;;;;;;;8.20;1.27;;;13.70;99.90;;;;;;5008131;28;20518;-78
2023/04/11 09:46:25;;;;;;;7.03;1.50;;;13.80;99.90;;;;;;5006948;28;20145;-77
2023/04/11 09:48:54;;;;;;;4.65;1.30;;;13.80;99.90;;;;;;5007709;28;20054;-78
2023/04/11 09:51:22;;;;;;;6.32;1.75;;;13.90;99.90;;;;;;5005955;28;20054;-77
2023/04/11 09:53:52;;;;;;;9.52;1.85;;;13.90;99.90;;;;;;4997907;28;20104;-76
2023/04/11 09:56:20;;;;;;;6.28;1.40;;;13.90;99.90;;;;;;5004461;28;20042;-77
2023/04/11 09:58:48;;;;;;;6.90;1.20;;;14.00;99.90;;;;;;5005929;28;20053;-77
2023/04/11 10:01:18;;;;;;;4.53;1.10;;;14.10;99.90;;;;;;4999772;28;20058;-76
2023/04/11 10:03:49;;;;;;;5.10;1.50;;;14.00;99.90;;;;;;5006126;28;20050;-78
2023/04/11 10:06:30;;;;;;;5.10;1.77;;;14.00;99.90;;;;;;5007502;28;20054;-78
2023/04/11 10:09:09;;;;;;;5.57;1.00;;;14.10;99.90;;;;;;5004233;28;20528;-78
2023/04/11 10:11:40;;;;;;;5.97;1.10;;;14.10;99.90;;;;;;5009276;28;20050;-75
2023/04/11 10:14:07;;;;;;;3.25;1.10;;;14.10;99.90;;;;;;5004906;28;20517;-79
2023/04/11 10:16:34;;;;;;;6.57;1.40;;;14.20;99.90;;;;;;5000579;28;20052;-76
2023/04/11 10:19:00;;;;;;;5.85;1.65;;;14.30;99.90;;;;;;5001073;28;20081;-76
2023/04/11 10:21:39;;;;;;;5.03;1.30;;;14.40;99.90;;;;;;5018734;28;20413;-77
2023/04/11 10:24:13;;;;;;;3.97;1.20;;;14.40;99.90;;;;;;5000007;28;20069;-76
2023/04/11 10:26:56;;;;;;;4.53;1.10;;;14.40;99.90;;;;;;5006754;28;20081;-76
2023/04/11 10:29:32;;;;;;;3.47;0.95;;;14.30;99.90;;;;;;5002899;28;20053;-76
2023/04/11 10:32:09;;;;;;;2.65;1.20;;;14.40;99.90;;;;;;5004150;28;20054;-77
2023/04/11 10:34:49;;;;;;;5.68;1.70;;;14.50;99.90;;;;;;5017339;28;20038;-77
2023/04/11 10:37:18;;;;;;;6.75;1.10;;;14.50;99.90;;;;;;5012784;28;20081;-75
2023/04/11 10:39:50;;;;;;;5.85;1.83;;;14.60;99.90;;;;;;5002272;28;20129;-76
2023/04/11 10:42:43;;;;;;;4.40;1.10;;;14.70;99.90;;;;;;5006461;28;20076;-77
2023/04/11 10:45:23;;;;;;;6.60;1.27;;;14.80;99.90;;;;;;5005638;28;20124;-76
2023/04/11 10:47:55;;;;;;;4.07;1.30;;;14.90;99.90;;;;;;5002299;28;20049;-77
2023/04/11 10:50:25;;;;;;;5.47;1.15;;;14.90;99.90;;;;;;5011152;28;20054;-76
2023/04/11 10:52:57;;;;;;;3.00;0.80;;;15.00;99.90;;;;;;5003168;28;20107;-76
2023/04/11 10:55:27;;;;;;;4.90;1.23;;;15.00;99.90;;;;;;5004166;28;20336;-77
2023/04/11 10:58:06;;;;;;;3.72;1.23;;;14.90;99.90;;;;;;5006146;28;20111;-77
2023/04/11 11:03:15;;;;;;;5.38;1.45;;;15.20;99.90;;;;;;5002997;28;20053;-75
2023/04/11 11:05:43;;;;;;;3.65;1.30;;;15.20;99.90;;;;;;5007344;28;20053;-75
2023/04/11 11:08:10;;;;;;;5.57;1.13;;;15.20;99.90;;;;;;5004673;28;20076;-76
2023/04/11 11:10:46;;;;;;;4.65;1.15;;;15.20;99.90;;;;;;5000270;28;20050;-76
2023/04/11 11:13:16;;;;;;;4.97;1.10;;;15.20;99.90;;;;;;5008416;28;20070;-75
2023/04/11 11:15:47;;;;;;;5.43;1.20;;;15.30;99.90;;;;;;5003727;28;20512;-75
2023/04/11 11:18:15;;;;;;;6.93;1.38;;;15.40;99.90;;;;;;5003095;28;20141;-76
2023/04/11 11:20:42;;;;;;;4.88;0.98;;;15.40;99.90;;;;;;5023101;28;20042;-76
2023/04/11 11:23:10;;;;;;;4.18;1.10;;;15.40;99.90;;;;;;5011546;28;20041;-76
2023/04/11 11:25:37;;;;;;;4.45;1.00;;;15.40;99.90;;;;;;5003295;28;20536;-75
2023/04/11 11:28:06;;;;;;;3.80;1.13;;;15.40;99.90;;;;;;5004423;28;20103;-77
2023/04/11 11:30:34;;;;;;;5.82;1.65;;;15.50;99.90;;;;;;5004932;28;20057;-77
2023/04/11 11:33:16;;;;;;;6.05;1.40;;;15.50;99.90;;;;;;4999518;28;20110;-76
2023/04/11 11:35:55;;;;;;;5.60;1.17;;;15.40;99.90;;;;;;5004180;28;20073;-76
2023/04/11 11:38:25;;;;;;;5.50;0.90;;;15.40;99.90;;;;;;5002379;28;20230;-76
2023/04/11 11:40:52;;;;;;;5.63;1.80;;;15.40;99.90;;;;;;4996969;28;20530;-75
2023/04/11 11:43:19;;;;;;;4.35;1.15;;;15.40;99.90;;;;;;5005571;28;20129;-76
2023/04/11 11:45:46;;;;;;;5.53;1.10;;;15.50;99.90;;;;;;5005732;28;20486;-76
2023/04/11 11:48:22;;;;;;;3.28;1.00;;;15.50;99.90;;;;;;5005505;28;20545;-76
2023/04/11 11:50:57;;;;;;;4.32;1.08;;;15.60;99.90;;;;;;5004624;28;20089;-76
2023/04/11 11:53:27;;;;;;;3.55;0.98;;;15.50;99.90;;;;;;5003357;28;20438;-76
2023/04/11 11:55:55;;;;;;;3.00;1.13;;;15.60;99.90;;;;;;4999392;28;20050;-76
2023/04/11 11:58:22;;;;;;;7.38;1.35;;;15.60;99.90;;;;;;5004314;28;20430;-75
2023/04/11 12:00:50;;;;;;;5.15;1.25;;;15.70;99.90;;;;;;5000923;28;20070;-76
2023/04/11 12:03:20;;;;;;;5.00;1.23;;;15.70;99.90;;;;;;4997726;28;20076;-75
2023/04/11 12:05:50;;;;;;;5.00;1.20;;;15.70;99.90;;;;;;5006402;28;20486;-76
2023/04/11 12:08:19;;;;;;;8.23;2.17;;;15.70;99.90;;;;;;4999445;28;20462;-76
2023/04/11 12:10:46;;;;;;;6.63;1.38;;;15.70;99.90;;;;;;5007866;28;20136;-76
2023/04/11 12:13:22;;;;;;;3.60;1.23;;;15.80;99.90;;;;;;5003817;28;20513;-76
2023/04/11 12:15:50;;;;;;;3.60;0.90;;;15.70;99.90;;;;;;5005905;28;20052;-76
2023/04/11 12:18:22;;;;;;;5.03;1.17;;;15.70;99.90;;;;;;5000738;28;20054;-76
2023/04/11 12:20:49;;;;;;;6.95;1.83;;;15.70;99.90;;;;;;5005126;28;20081;-76
2023/04/11 12:23:17;;;;;;;4.80;1.13;;;15.70;99.90;;;;;;5002403;28;20536;-76
2023/04/11 12:25:45;;;;;;;5.70;1.27;;;15.60;99.90;;;;;;4997162;28;20564;-76
2023/04/11 12:28:12;;;;;;;9.45;1.30;;;15.60;99.90;;;;;;5004852;28;20054;-76
2023/04/11 12:30:39;;;;;;;4.80;1.33;;;15.40;99.90;;;;;;5000299;28;20716;-76
2023/04/11 12:33:06;;;;;;;6.90;0.95;;;15.40;99.90;;;;;;4998511;28;20053;-76
2023/04/11 12:35:33;;;;;;;6.85;1.20;;;15.50;99.90;;;;;;5006497;28;20053;-76
2023/04/11 12:38:00;;;;;;;5.53;1.13;;;15.50;99.90;;;;;;5010740;28;20050;-77
2023/04/11 12:40:28;;;;;;;5.20;1.02;;;15.50;99.90;;;;;;5003238;28;20133;-76
2023/04/11 12:42:55;;;;;;;3.00;1.02;;;15.50;99.90;;;;;;5005384;28;20104;-76
2023/04/11 12:45:24;;;;;;;3.60;1.10;;;15.50;99.90;;;;;;5010512;28;20061;-75
2023/04/11 12:47:51;;;;;;;3.42;1.15;;;15.70;99.90;;;;;;5001813;28;20084;-76
2023/04/11 12:50:18;;;;;;;4.20;1.10;;;15.60;99.90;;;;;;5001676;28;20050;-76
2023/04/11 12:52:45;;;;;;;4.78;1.58;;;15.70;99.90;;;;;;5003124;28;20050;-76
2023/04/11 12:55:12;;;;;;;6.32;1.10;;;15.70;99.90;;;;;;5008132;28;20042;-76
2023/04/11 12:57:39;;;;;;;4.05;1.27;;;15.80;99.90;;;;;;5007089;28;20044;-76
2023/04/11 13:00:07;;;;;;;4.63;1.27;;;16.00;99.90;;;;;;5010523;28;20069;-76
2023/04/11 13:02:34;;;;;;;4.35;1.10;;;16.00;99.90;;;;;;5005681;28;20112;-76
2023/04/11 13:05:12;;;;;;;3.25;1.00;;;16.10;99.90;;;;;;5006033;28;20109;-76